createdAt,value
2018-06-28T00:00:25.305Z,1011.99
2018-06-28T00:01:25.302Z,1012.00
2018-06-28T00:02:25.332Z,1012.02
2018-06-28T00:03:25.353Z,1011.97
2018-06-28T00:04:25.380Z,1011.99
2018-06-28T00:05:25.409Z,1011.99
2018-06-28T00:06:25.449Z,1011.95
2018-06-28T00:07:25.466Z,1011.95
2018-06-28T00:08:25.492Z,1011.97
2018-06-28T00:09:25.525Z,1011.96
2018-06-28T00:10:25.554Z,1011.93
2018-06-28T00:11:25.580Z,1011.94
2018-06-28T00:12:25.604Z,1011.92
2018-06-28T00:13:25.634Z,1011.92
2018-06-28T00:14:25.659Z,1011.98
2018-06-28T00:15:25.688Z,1011.92
2018-06-28T00:16:25.715Z,1011.92
2018-06-28T00:17:25.762Z,1011.96
2018-06-28T00:18:25.771Z,1011.93
2018-06-28T00:19:25.801Z,1011.91
2018-06-28T00:20:25.827Z,1011.88
2018-06-28T00:21:25.854Z,1011.85
2018-06-28T00:22:25.883Z,1011.80
2018-06-28T00:23:25.910Z,1011.83
2018-06-28T00:24:25.937Z,1011.84
2018-06-28T00:25:25.993Z,1011.84
2018-06-28T00:26:25.993Z,1011.82
2018-06-28T00:27:26.022Z,1011.83
2018-06-28T00:28:26.049Z,1011.79
2018-06-28T00:29:26.077Z,1011.78
2018-06-28T00:30:26.105Z,1011.76
2018-06-28T00:31:26.134Z,1011.78
2018-06-28T00:32:26.179Z,1011.78
2018-06-28T00:33:26.188Z,1011.80
2018-06-28T00:34:26.216Z,1011.80
2018-06-28T00:35:26.244Z,1011.81
2018-06-28T00:36:26.271Z,1011.79
2018-06-28T00:37:26.303Z,1011.77
2018-06-28T00:38:26.328Z,1011.76
2018-06-28T00:39:26.355Z,1011.72
2018-06-28T00:40:26.383Z,1011.71
2018-06-28T00:41:26.411Z,1011.72
2018-06-28T00:42:26.439Z,1011.68
2018-06-28T00:43:26.469Z,1011.69
2018-06-28T00:44:26.494Z,1011.69
2018-06-28T00:45:26.522Z,1011.67
2018-06-28T00:46:26.553Z,1011.68
2018-06-28T00:47:26.578Z,1011.66
2018-06-28T00:48:26.605Z,1011.63
2018-06-28T00:49:26.633Z,1011.60
2018-06-28T00:50:26.661Z,1011.58
2018-06-28T00:51:26.690Z,1011.60
2018-06-28T00:52:26.716Z,1011.53
2018-06-28T00:53:26.745Z,1011.57
2018-06-28T00:54:26.773Z,1011.53
2018-06-28T00:55:26.801Z,1011.50
2018-06-28T00:56:26.827Z,1011.47
2018-06-28T00:57:26.856Z,1011.43
2018-06-28T00:58:26.884Z,1011.46
2018-06-28T00:59:26.912Z,1011.39
2018-06-28T01:00:26.939Z,1011.40
2018-06-28T01:01:26.967Z,1011.40
2018-06-28T01:02:26.994Z,1011.38
2018-06-28T01:03:27.023Z,1011.36
2018-06-28T01:04:27.050Z,1011.37
2018-06-28T01:05:27.081Z,1011.36
2018-06-28T01:06:27.106Z,1011.35
2018-06-28T01:07:27.134Z,1011.38
2018-06-28T01:08:27.161Z,1011.36
2018-06-28T01:09:27.189Z,1011.32
2018-06-28T01:10:27.257Z,1011.36
2018-06-28T01:11:27.249Z,1011.33
2018-06-28T01:12:27.272Z,1011.35
2018-06-28T01:13:27.300Z,1011.32
2018-06-28T01:14:27.329Z,1011.32
2018-06-28T01:15:27.357Z,1011.35
2018-06-28T01:16:27.384Z,1011.36
2018-06-28T01:17:27.412Z,1011.35
2018-06-28T01:18:27.441Z,1011.35
2018-06-28T01:19:27.470Z,1011.36
2018-06-28T01:20:27.524Z,1011.32
2018-06-28T01:21:27.523Z,1011.33
2018-06-28T01:22:27.551Z,1011.33
2018-06-28T01:23:27.579Z,1011.31
2018-06-28T01:24:27.643Z,1011.33
2018-06-28T01:25:27.675Z,1011.36
2018-06-28T01:26:27.663Z,1011.34
2018-06-28T01:27:27.691Z,1011.39
2018-06-28T01:28:27.723Z,1011.39
2018-06-28T01:29:27.749Z,1011.45
2018-06-28T01:30:27.778Z,1011.48
2018-06-28T01:31:27.802Z,1011.49
2018-06-28T01:32:27.831Z,1011.57
2018-06-28T01:33:27.858Z,1011.59
2018-06-28T01:34:27.886Z,1011.57
2018-06-28T01:35:27.914Z,1011.54
2018-06-28T01:36:27.941Z,1011.54
2018-06-28T01:37:28.007Z,1011.53
2018-06-28T01:38:27.997Z,1011.51
2018-06-28T01:39:28.025Z,1011.49
2018-06-28T01:40:28.053Z,1011.53
2018-06-28T01:41:28.080Z,1011.58
2018-06-28T01:42:28.108Z,1011.58
2018-06-28T01:43:28.136Z,1011.57
2018-06-28T01:44:28.163Z,1011.59
2018-06-28T01:45:28.191Z,1011.60
2018-06-28T01:46:28.220Z,1011.54
2018-06-28T01:47:28.247Z,1011.52
2018-06-28T01:48:28.275Z,1011.51
2018-06-28T01:49:28.302Z,1011.48
2018-06-28T01:50:28.330Z,1011.53
2018-06-28T01:51:28.360Z,1011.53
2018-06-28T01:52:28.386Z,1011.51
2018-06-28T01:53:28.415Z,1011.47
2018-06-28T01:54:28.442Z,1011.47
2018-06-28T01:55:28.471Z,1011.43
2018-06-28T01:56:28.501Z,1011.44
2018-06-28T01:57:28.532Z,1011.44
2018-06-28T01:58:28.553Z,1011.45
2018-06-28T01:59:28.583Z,1011.46
2018-06-28T02:00:28.609Z,1011.43
2018-06-28T02:01:28.636Z,1011.45
2018-06-28T02:02:28.664Z,1011.48
2018-06-28T02:03:28.692Z,1011.50
2018-06-28T02:04:28.720Z,1011.48
2018-06-28T02:05:28.748Z,1011.46
2018-06-28T02:06:28.776Z,1011.51
2018-06-28T02:07:28.804Z,1011.46
2018-06-28T02:08:28.831Z,1011.50
2018-06-28T02:09:28.860Z,1011.51
2018-06-28T02:10:28.887Z,1011.50
2018-06-28T02:11:28.915Z,1011.50
2018-06-28T02:12:28.942Z,1011.50
2018-06-28T02:13:28.970Z,1011.53
2018-06-28T02:14:28.999Z,1011.55
2018-06-28T02:15:29.027Z,1011.55
2018-06-28T02:16:29.055Z,1011.56
2018-06-28T02:17:29.081Z,1011.55
2018-06-28T02:18:29.110Z,1011.52
2018-06-28T02:19:29.138Z,1011.54
2018-06-28T02:20:29.165Z,1011.48
2018-06-28T02:21:29.218Z,1011.50
2018-06-28T02:22:29.222Z,1011.49
2018-06-28T02:23:29.249Z,1011.47
2018-06-28T02:24:29.276Z,1011.48
2018-06-28T02:25:29.305Z,1011.49
2018-06-28T02:26:29.333Z,1011.49
2018-06-28T02:27:29.361Z,1011.48
2018-06-28T02:28:29.387Z,1011.45
2018-06-28T02:29:29.417Z,1011.46
2018-06-28T02:30:29.445Z,1011.48
2018-06-28T02:31:29.476Z,1011.44
2018-06-28T02:32:29.501Z,1011.43
2018-06-28T02:33:29.528Z,1011.41
2018-06-28T02:34:29.556Z,1011.37
2018-06-28T02:35:29.584Z,1011.39
2018-06-28T02:36:29.613Z,1011.35
2018-06-28T02:37:29.663Z,1011.39
2018-06-28T02:38:29.667Z,1011.36
2018-06-28T02:39:29.729Z,1011.39
2018-06-28T02:40:29.727Z,1011.38
2018-06-28T02:41:29.752Z,1011.39
2018-06-28T02:42:29.793Z,1011.37
2018-06-28T02:43:29.808Z,1011.37
2018-06-28T02:44:29.834Z,1011.36
2018-06-28T02:45:29.864Z,1011.37
2018-06-28T02:46:29.890Z,1011.35
2018-06-28T02:47:29.919Z,1011.36
2018-06-28T02:48:29.946Z,1011.33
2018-06-28T02:49:29.999Z,1011.33
2018-06-28T02:50:30.043Z,1011.32
2018-06-28T02:51:30.031Z,1011.31
2018-06-28T02:52:30.061Z,1011.33
2018-06-28T02:53:30.086Z,1011.33
2018-06-28T02:54:30.114Z,1011.35
2018-06-28T02:55:30.146Z,1011.36
2018-06-28T02:56:30.169Z,1011.39
2018-06-28T02:57:30.197Z,1011.33
2018-06-28T02:58:30.227Z,1011.38
2018-06-28T02:59:30.256Z,1011.35
2018-06-28T03:00:30.308Z,1011.34
2018-06-28T03:01:30.310Z,1011.34
2018-06-28T03:02:30.337Z,1011.38
2018-06-28T03:03:30.366Z,1011.34
2018-06-28T03:04:30.396Z,1011.37
2018-06-28T03:05:30.447Z,1011.35
2018-06-28T03:06:30.455Z,1011.34
2018-06-28T03:07:30.478Z,1011.32
2018-06-28T03:08:30.505Z,1011.29
2018-06-28T03:09:30.535Z,1011.32
2018-06-28T03:10:30.565Z,1011.37
2018-06-28T03:11:30.590Z,1011.41
2018-06-28T03:12:30.617Z,1011.39
2018-06-28T03:13:30.645Z,1011.38
2018-06-28T03:14:30.674Z,1011.36
2018-06-28T03:15:30.703Z,1011.43
2018-06-28T03:16:30.732Z,1011.40
2018-06-28T03:17:30.757Z,1011.41
2018-06-28T03:18:30.787Z,1011.47
2018-06-28T03:19:30.815Z,1011.43
2018-06-28T03:20:30.870Z,1011.46
2018-06-28T03:21:30.870Z,1011.45
2018-06-28T03:22:30.931Z,1011.51
2018-06-28T03:23:30.926Z,1011.49
2018-06-28T03:24:30.954Z,1011.49
2018-06-28T03:25:30.982Z,1011.47
2018-06-28T03:26:31.035Z,1011.45
2018-06-28T03:27:31.040Z,1011.42
2018-06-28T03:28:31.066Z,1011.41
2018-06-28T03:29:31.095Z,1011.39
2018-06-28T03:30:31.123Z,1011.35
2018-06-28T03:31:31.152Z,1011.36
2018-06-28T03:32:31.179Z,1011.33
2018-06-28T03:33:31.207Z,1011.33
2018-06-28T03:34:31.235Z,1011.35
2018-06-28T03:35:31.264Z,1011.31
2018-06-28T03:36:31.292Z,1011.33
2018-06-28T03:37:31.319Z,1011.32
2018-06-28T03:38:31.348Z,1011.33
2018-06-28T03:39:31.378Z,1011.33
2018-06-28T03:40:31.404Z,1011.33
2018-06-28T03:41:31.432Z,1011.30
2018-06-28T03:42:31.499Z,1011.31
2018-06-28T03:43:31.489Z,1011.28
2018-06-28T03:44:31.516Z,1011.27
2018-06-28T03:45:31.552Z,1011.24
2018-06-28T03:46:31.574Z,1011.25
2018-06-28T03:47:31.602Z,1011.23
2018-06-28T03:48:31.629Z,1011.18
2018-06-28T03:49:31.658Z,1011.20
2018-06-28T03:50:31.686Z,1011.20
2018-06-28T03:51:31.715Z,1011.20
2018-06-28T03:52:31.742Z,1011.20
2018-06-28T03:53:31.771Z,1011.20
2018-06-28T03:54:31.799Z,1011.18
2018-06-28T03:55:31.827Z,1011.19
2018-06-28T03:56:31.854Z,1011.20
2018-06-28T03:57:32.111Z,1011.17
2018-06-28T03:58:31.912Z,1011.20
2018-06-28T03:59:31.940Z,1011.16
2018-06-28T04:00:31.968Z,1011.14
2018-06-28T04:01:32.036Z,1011.15
2018-06-28T04:02:32.024Z,1011.14
2018-06-28T04:03:32.052Z,1011.14
2018-06-28T04:04:32.122Z,1011.09
2018-06-28T04:05:32.108Z,1011.09
2018-06-28T04:06:32.180Z,1011.10
2018-06-28T04:07:32.195Z,1011.11
2018-06-28T04:08:32.193Z,1011.08
2018-06-28T04:09:32.222Z,1011.07
2018-06-28T04:10:32.251Z,1011.02
2018-06-28T04:11:32.278Z,1011.07
2018-06-28T04:12:32.306Z,1011.05
2018-06-28T04:13:32.335Z,1011.02
2018-06-28T04:14:32.363Z,1011.02
2018-06-28T04:15:32.393Z,1011.02
2018-06-28T04:16:32.418Z,1011.04
2018-06-28T04:17:32.447Z,1011.03
2018-06-28T04:18:32.476Z,1011.00
2018-06-28T04:19:32.505Z,1010.96
2018-06-28T04:20:32.533Z,1010.98
2018-06-28T04:21:32.560Z,1011.01
2018-06-28T04:22:32.589Z,1011.03
2018-06-28T04:23:32.655Z,1010.96
2018-06-28T04:24:32.645Z,1010.97
2018-06-28T04:25:32.674Z,1010.95
2018-06-28T04:26:32.702Z,1010.95
2018-06-28T04:27:32.856Z,1010.95
2018-06-28T04:28:32.758Z,1010.95
2018-06-28T04:29:32.787Z,1010.95
2018-06-28T04:30:32.816Z,1010.97
2018-06-28T04:31:32.844Z,1010.92
2018-06-28T04:32:32.872Z,1010.91
2018-06-28T04:33:32.900Z,1010.92
2018-06-28T04:34:32.929Z,1010.89
2018-06-28T04:35:32.957Z,1010.88
2018-06-28T04:36:32.985Z,1010.88
2018-06-28T04:37:33.014Z,1010.86
2018-06-28T04:38:33.043Z,1010.85
2018-06-28T04:39:33.084Z,1010.85
2018-06-28T04:40:33.099Z,1010.83
2018-06-28T04:41:33.127Z,1010.80
2018-06-28T04:42:33.166Z,1010.83
2018-06-28T04:43:33.192Z,1010.78
2018-06-28T04:44:33.213Z,1010.80
2018-06-28T04:45:33.242Z,1010.78
2018-06-28T04:46:33.289Z,1010.78
2018-06-28T04:47:33.298Z,1010.74
2018-06-28T04:48:33.366Z,1010.70
2018-06-28T04:49:33.355Z,1010.66
2018-06-28T04:50:33.384Z,1010.66
2018-06-28T04:51:33.442Z,1010.66
2018-06-28T04:52:33.440Z,1010.66
2018-06-28T04:53:33.472Z,1010.62
2018-06-28T04:54:33.501Z,1010.64
2018-06-28T04:55:33.528Z,1010.64
2018-06-28T04:56:33.554Z,1010.60
2018-06-28T04:57:33.583Z,1010.56
2018-06-28T04:58:33.612Z,1010.57
2018-06-28T04:59:33.640Z,1010.59
2018-06-28T05:00:33.672Z,1010.51
2018-06-28T05:01:33.700Z,1010.49
2018-06-28T05:02:33.725Z,1010.48
2018-06-28T05:03:33.754Z,1010.45
2018-06-28T05:04:33.782Z,1010.45
2018-06-28T05:05:33.810Z,1010.46
2018-06-28T05:06:33.838Z,1010.44
2018-06-28T05:07:33.868Z,1010.42
2018-06-28T05:08:33.895Z,1010.41
2018-06-28T05:09:33.942Z,1010.40
2018-06-28T05:10:33.953Z,1010.43
2018-06-28T05:11:33.982Z,1010.38
2018-06-28T05:12:34.009Z,1010.37
2018-06-28T05:13:34.039Z,1010.34
2018-06-28T05:14:34.066Z,1010.31
2018-06-28T05:15:34.095Z,1010.28
2018-06-28T05:16:34.141Z,1010.27
2018-06-28T05:17:34.151Z,1010.23
2018-06-28T05:18:34.180Z,1010.22
2018-06-28T05:19:34.209Z,1010.23
2018-06-28T05:20:34.236Z,1010.26
2018-06-28T05:21:34.265Z,1010.20
2018-06-28T05:22:34.293Z,1010.21
2018-06-28T05:23:34.323Z,1010.26
2018-06-28T05:24:34.385Z,1010.20
2018-06-28T05:25:34.379Z,1010.25
2018-06-28T05:26:34.428Z,1010.21
2018-06-28T05:27:34.461Z,1010.18
2018-06-28T05:28:34.464Z,1010.16
2018-06-28T05:29:34.493Z,1010.15
2018-06-28T05:30:34.522Z,1010.13
2018-06-28T05:31:34.552Z,1010.11
2018-06-28T05:32:34.578Z,1010.11
2018-06-28T05:33:34.609Z,1010.10
2018-06-28T05:34:34.671Z,1010.08
2018-06-28T05:35:34.665Z,1010.11
2018-06-28T05:36:34.692Z,1010.07
2018-06-28T05:37:34.724Z,1010.04
2018-06-28T05:38:34.750Z,1010.07
2018-06-28T05:39:34.780Z,1010.03
2018-06-28T05:40:34.859Z,1010.02
2018-06-28T05:41:34.850Z,1009.97
2018-06-28T05:42:34.880Z,1009.94
2018-06-28T05:43:34.891Z,1009.93
2018-06-28T05:44:34.920Z,1009.86
2018-06-28T05:45:34.948Z,1009.82
2018-06-28T05:46:34.977Z,1009.81
2018-06-28T05:47:35.005Z,1009.82
2018-06-28T05:48:35.037Z,1009.77
2018-06-28T05:49:35.062Z,1009.80
2018-06-28T05:50:35.090Z,1009.77
2018-06-28T05:51:35.157Z,1009.77
2018-06-28T05:52:35.148Z,1009.73
2018-06-28T05:53:35.176Z,1009.73
2018-06-28T05:54:35.204Z,1009.67
2018-06-28T05:55:35.236Z,1009.65
2018-06-28T05:56:35.381Z,1009.64
2018-06-28T05:57:35.290Z,1009.66
2018-06-28T05:58:35.318Z,1009.62
2018-06-28T05:59:35.374Z,1009.58
2018-06-28T06:00:35.376Z,1009.57
2018-06-28T06:01:35.406Z,1009.52
2018-06-28T06:02:35.433Z,1009.54
2018-06-28T06:03:35.463Z,1009.60
2018-06-28T06:04:35.489Z,1009.62
2018-06-28T06:05:35.518Z,1009.58
2018-06-28T06:06:35.546Z,1009.55
2018-06-28T06:07:35.575Z,1009.56
2018-06-28T06:08:35.623Z,1009.54
2018-06-28T06:09:35.643Z,1009.52
2018-06-28T06:10:35.663Z,1009.45
2018-06-28T06:11:35.689Z,1009.39
2018-06-28T06:12:35.724Z,1009.38
2018-06-28T06:13:35.745Z,1009.39
2018-06-28T06:14:35.775Z,1009.37
2018-06-28T06:15:35.803Z,1009.33
2018-06-28T06:16:35.831Z,1009.36
2018-06-28T06:17:35.859Z,1009.31
2018-06-28T06:18:35.888Z,1009.30
2018-06-28T06:19:35.917Z,1009.26
2018-06-28T06:20:35.966Z,1009.26
2018-06-28T06:21:35.973Z,1009.23
2018-06-28T06:22:36.003Z,1009.18
2018-06-28T06:23:36.033Z,1009.17
2018-06-28T06:24:36.059Z,1009.17
2018-06-28T06:25:36.088Z,1009.14
2018-06-28T06:26:36.116Z,1009.10
2018-06-28T06:27:36.148Z,1009.08
2018-06-28T06:28:36.172Z,1009.08
2018-06-28T06:29:36.201Z,1009.01
2018-06-28T06:30:36.230Z,1009.05
2018-06-28T06:31:36.259Z,1009.05
2018-06-28T06:32:36.286Z,1009.02
2018-06-28T06:33:36.314Z,1009.07
2018-06-28T06:34:36.351Z,1009.04
2018-06-28T06:35:36.372Z,1008.98
2018-06-28T06:36:36.403Z,1008.96
2018-06-28T06:37:36.428Z,1008.95
2018-06-28T06:38:36.457Z,1008.96
2018-06-28T06:39:36.485Z,1008.90
2018-06-28T06:40:36.519Z,1008.93
2018-06-28T06:41:36.542Z,1008.88
2018-06-28T06:42:36.576Z,1008.90
2018-06-28T06:43:36.600Z,1008.87
2018-06-28T06:44:36.627Z,1008.79
2018-06-28T06:45:36.655Z,1008.81
2018-06-28T06:46:36.687Z,1008.80
2018-06-28T06:47:36.716Z,1008.79
2018-06-28T06:48:36.742Z,1008.76
2018-06-28T06:49:36.769Z,1008.72
2018-06-28T06:50:36.813Z,1008.67
2018-06-28T06:51:36.826Z,1008.65
2018-06-28T06:52:36.854Z,1008.66
2018-06-28T06:53:36.883Z,1008.66
2018-06-28T06:54:36.942Z,1008.59
2018-06-28T06:55:36.941Z,1008.60
2018-06-28T06:56:36.971Z,1008.60
2018-06-28T06:57:37.024Z,1008.60
2018-06-28T06:58:37.028Z,1008.54
2018-06-28T06:59:37.055Z,1008.52
2018-06-28T07:00:37.083Z,1008.52
2018-06-28T07:01:37.111Z,1008.50
2018-06-28T07:02:37.140Z,1008.45
2018-06-28T07:03:37.274Z,1008.43
2018-06-28T07:04:37.196Z,1008.46
2018-06-28T07:05:37.225Z,1008.40
2018-06-28T07:06:37.254Z,1008.41
2018-06-28T07:07:37.282Z,1008.39
2018-06-28T07:08:37.309Z,1008.40
2018-06-28T07:09:37.339Z,1008.39
2018-06-28T07:10:37.368Z,1008.38
2018-06-28T07:11:37.396Z,1008.40
2018-06-28T07:12:37.425Z,1008.37
2018-06-28T07:13:37.452Z,1008.37
2018-06-28T07:14:37.494Z,1008.44
2018-06-28T07:15:37.510Z,1008.40
2018-06-28T07:16:37.541Z,1008.39
2018-06-28T07:17:37.579Z,1008.36
2018-06-28T07:18:37.636Z,1008.37
2018-06-28T07:19:37.623Z,1008.33
2018-06-28T07:20:37.659Z,1008.31
2018-06-28T07:21:37.680Z,1008.29
2018-06-28T07:22:37.709Z,1008.27
2018-06-28T07:23:37.737Z,1008.28
2018-06-28T07:24:37.764Z,1008.27
2018-06-28T07:25:37.793Z,1008.26
2018-06-28T07:26:37.826Z,1008.26
2018-06-28T07:27:37.908Z,1008.21
2018-06-28T07:28:37.926Z,1008.18
2018-06-28T07:29:37.907Z,1008.20
2018-06-28T07:30:37.998Z,1008.18
2018-06-28T07:31:37.965Z,1008.16
2018-06-28T07:32:37.992Z,1008.15
2018-06-28T07:33:38.024Z,1008.14
2018-06-28T07:34:38.056Z,1008.13
2018-06-28T07:35:38.079Z,1008.13
2018-06-28T07:36:38.106Z,1008.11
2018-06-28T07:37:38.159Z,1008.04
2018-06-28T07:38:38.164Z,1008.08
2018-06-28T07:39:38.192Z,1008.00
2018-06-28T07:40:38.220Z,1008.05
2018-06-28T07:41:38.249Z,1008.04
2018-06-28T07:42:38.277Z,1008.04
2018-06-28T07:43:38.306Z,1008.02
2018-06-28T07:44:38.333Z,1008.04
2018-06-28T07:45:38.363Z,1008.09
2018-06-28T07:46:38.391Z,1008.09
2018-06-28T07:47:38.420Z,1008.09
2018-06-28T07:48:38.450Z,1008.09
2018-06-28T07:49:38.476Z,1008.09
2018-06-28T07:50:38.505Z,1008.08
2018-06-28T07:51:38.533Z,1008.04
2018-06-28T07:52:38.570Z,1007.95
2018-06-28T07:53:38.590Z,1007.97
2018-06-28T07:54:38.618Z,1007.96
2018-06-28T07:55:38.647Z,1007.92
2018-06-28T07:56:38.678Z,1007.88
2018-06-28T07:57:38.702Z,1007.86
2018-06-28T07:58:38.731Z,1007.81
2018-06-28T07:59:38.762Z,1007.77
2018-06-28T08:00:38.789Z,1007.76
2018-06-28T08:01:38.817Z,1007.76
2018-06-28T08:02:38.862Z,1007.67
2018-06-28T08:03:38.874Z,1007.68
2018-06-28T08:04:38.949Z,1007.63
2018-06-28T08:05:38.931Z,1007.62
2018-06-28T08:06:38.960Z,1007.59
2018-06-28T08:07:38.992Z,1007.57
2018-06-28T08:08:39.022Z,1007.55
2018-06-28T08:09:39.053Z,1007.57
2018-06-28T08:10:39.073Z,1007.60
2018-06-28T08:11:39.101Z,1007.57
2018-06-28T08:12:39.129Z,1007.59
2018-06-28T08:13:39.157Z,1007.56
2018-06-28T08:14:39.186Z,1007.53
2018-06-28T08:15:39.215Z,1007.55
2018-06-28T08:16:39.242Z,1007.60
2018-06-28T08:17:39.271Z,1007.55
2018-06-28T08:18:39.344Z,1007.53
2018-06-28T08:19:39.328Z,1007.53
2018-06-28T08:20:39.356Z,1007.48
2018-06-28T08:21:39.386Z,1007.51
2018-06-28T08:22:39.413Z,1007.49
2018-06-28T08:23:39.442Z,1007.44
2018-06-28T08:24:39.470Z,1007.41
2018-06-28T08:25:39.498Z,1007.39
2018-06-28T08:26:39.527Z,1007.36
2018-06-28T08:27:39.556Z,1007.30
2018-06-28T08:28:39.587Z,1007.26
2018-06-28T08:29:39.612Z,1007.28
2018-06-28T08:30:39.640Z,1007.25
2018-06-28T08:31:39.669Z,1007.25
2018-06-28T08:32:39.697Z,1007.30
2018-06-28T08:33:39.725Z,1007.27
2018-06-28T08:34:39.756Z,1007.27
2018-06-28T08:35:39.785Z,1007.26
2018-06-28T08:36:39.810Z,1007.28
2018-06-28T08:37:39.841Z,1007.27
2018-06-28T08:38:39.867Z,1007.28
2018-06-28T08:39:39.897Z,1007.22
2018-06-28T08:40:39.925Z,1007.24
2018-06-28T08:41:39.952Z,1007.23
2018-06-28T08:42:40.005Z,1007.15
2018-06-28T08:43:40.010Z,1007.11
2018-06-28T08:44:40.039Z,1007.01
2018-06-28T08:45:40.067Z,1007.00
2018-06-28T08:46:40.095Z,1007.03
2018-06-28T08:47:40.124Z,1006.93
2018-06-28T08:48:40.152Z,1006.96
2018-06-28T08:49:40.179Z,1006.87
2018-06-28T08:50:40.208Z,1006.84
2018-06-28T08:51:40.237Z,1006.80
2018-06-28T08:52:40.267Z,1006.77
2018-06-28T08:53:40.294Z,1006.72
2018-06-28T08:54:40.322Z,1006.74
2018-06-28T08:55:40.350Z,1006.68
2018-06-28T08:56:40.395Z,1006.67
2018-06-28T08:57:40.476Z,1006.60
2018-06-28T08:58:40.435Z,1006.61
2018-06-28T08:59:40.464Z,1006.60
2018-06-28T09:00:40.493Z,1006.61
2018-06-28T09:01:40.520Z,1006.59
2018-06-28T09:02:40.552Z,1006.53
2018-06-28T09:03:40.578Z,1006.51
2018-06-28T09:04:40.605Z,1006.41
2018-06-28T09:05:40.698Z,1006.41
2018-06-28T09:06:40.663Z,1006.38
2018-06-28T09:07:40.725Z,1006.41
2018-06-28T09:08:40.753Z,1006.38
2018-06-28T09:09:40.747Z,1006.42
2018-06-28T09:10:40.776Z,1006.43
2018-06-28T09:11:40.805Z,1006.39
2018-06-28T09:12:40.832Z,1006.36
2018-06-28T09:13:40.863Z,1006.37
2018-06-28T09:14:40.890Z,1006.30
2018-06-28T09:15:40.918Z,1006.29
2018-06-28T09:16:40.946Z,1006.29
2018-06-28T09:17:40.975Z,1006.27
2018-06-28T09:18:41.031Z,1006.29
2018-06-28T09:19:41.032Z,1006.26
2018-06-28T09:20:41.059Z,1006.24
2018-06-28T09:21:41.089Z,1006.26
2018-06-28T09:22:41.252Z,1006.22
2018-06-28T09:23:41.146Z,1006.19
2018-06-28T09:24:41.173Z,1006.22
2018-06-28T09:25:41.202Z,1006.25
2018-06-28T09:26:41.232Z,1006.23
2018-06-28T09:27:41.259Z,1006.13
2018-06-28T09:28:41.287Z,1006.16
2018-06-28T09:29:41.316Z,1006.15
2018-06-28T09:30:41.345Z,1006.13
2018-06-28T09:31:41.373Z,1006.05
2018-06-28T09:32:41.400Z,1005.99
2018-06-28T09:33:41.467Z,1005.97
2018-06-28T09:34:41.458Z,1005.94
2018-06-28T09:35:41.486Z,1005.96
2018-06-28T09:36:41.515Z,1005.94
2018-06-28T09:37:41.543Z,1005.90
2018-06-28T09:38:41.572Z,1005.89
2018-06-28T09:39:41.601Z,1005.92
2018-06-28T09:40:41.628Z,1005.84
2018-06-28T09:41:41.658Z,1005.85
2018-06-28T09:42:41.685Z,1005.86
2018-06-28T09:43:41.736Z,1005.81
2018-06-28T09:44:41.744Z,1005.82
2018-06-28T09:45:41.770Z,1005.78
2018-06-28T09:46:41.799Z,1005.74
2018-06-28T09:47:41.827Z,1005.70
2018-06-28T09:48:41.859Z,1005.71
2018-06-28T09:49:41.883Z,1005.68
2018-06-28T09:50:41.912Z,1005.65
2018-06-28T09:51:41.941Z,1005.67
2018-06-28T09:52:41.969Z,1005.65
2018-06-28T09:53:41.998Z,1005.61
2018-06-28T09:54:42.055Z,1005.58
2018-06-28T09:55:42.057Z,1005.55
2018-06-28T09:56:42.083Z,1005.49
2018-06-28T09:57:42.111Z,1005.49
2018-06-28T09:58:42.140Z,1005.43
2018-06-28T09:59:42.168Z,1005.44
2018-06-28T10:00:42.196Z,1005.43
2018-06-28T10:01:42.225Z,1005.45
2018-06-28T10:02:42.253Z,1005.41
2018-06-28T10:03:42.307Z,1005.37
2018-06-28T10:04:42.311Z,1005.33
2018-06-28T10:05:42.339Z,1005.30
2018-06-28T10:06:42.368Z,1005.25
2018-06-28T10:07:42.395Z,1005.24
2018-06-28T10:08:42.438Z,1005.22
2018-06-28T10:09:42.453Z,1005.21
2018-06-28T10:10:42.481Z,1005.20
2018-06-28T10:11:42.509Z,1005.18
2018-06-28T10:12:42.537Z,1005.14
2018-06-28T10:13:42.570Z,1005.13
2018-06-28T10:14:42.609Z,1005.13
2018-06-28T10:15:42.639Z,1005.05
2018-06-28T10:16:42.650Z,1005.09
2018-06-28T10:17:42.693Z,1005.05
2018-06-28T10:18:42.717Z,1005.03
2018-06-28T10:19:42.773Z,1004.98
2018-06-28T10:20:42.780Z,1004.97
2018-06-28T10:21:42.792Z,1004.94
2018-06-28T10:22:42.822Z,1005.00
2018-06-28T10:23:42.850Z,1004.99
2018-06-28T10:24:42.906Z,1004.91
2018-06-28T10:25:42.911Z,1004.92
2018-06-28T10:26:42.938Z,1004.84
2018-06-28T10:27:42.964Z,1004.86
2018-06-28T10:28:43.019Z,1004.83
2018-06-28T10:29:43.020Z,1004.83
2018-06-28T10:30:43.049Z,1004.76
2018-06-28T10:31:43.078Z,1004.76
2018-06-28T10:32:43.155Z,1004.70
2018-06-28T10:33:43.135Z,1004.69
2018-06-28T10:34:43.162Z,1004.72
2018-06-28T10:35:43.192Z,1004.70
2018-06-28T10:36:43.219Z,1004.68
2018-06-28T10:37:43.247Z,1004.63
2018-06-28T10:38:43.276Z,1004.58
2018-06-28T10:39:43.310Z,1004.56
2018-06-28T10:40:43.333Z,1004.48
2018-06-28T10:41:43.362Z,1004.52
2018-06-28T10:42:43.390Z,1004.47
2018-06-28T10:43:43.418Z,1004.48
2018-06-28T10:44:43.447Z,1004.45
2018-06-28T10:45:43.475Z,1004.45
2018-06-28T10:46:43.504Z,1004.41
2018-06-28T10:47:43.534Z,1004.33
2018-06-28T10:48:43.560Z,1004.40
2018-06-28T10:49:43.589Z,1004.33
2018-06-28T10:50:43.617Z,1004.28
2018-06-28T10:51:43.646Z,1004.32
2018-06-28T10:52:43.674Z,1004.27
2018-06-28T10:53:43.703Z,1004.23
2018-06-28T10:54:43.757Z,1004.24
2018-06-28T10:55:43.760Z,1004.25
2018-06-28T10:56:43.833Z,1004.17
2018-06-28T10:57:43.820Z,1004.12
2018-06-28T10:58:43.845Z,1004.07
2018-06-28T10:59:43.874Z,1004.15
2018-06-28T11:00:43.921Z,1004.07
2018-06-28T11:01:43.946Z,1004.03
2018-06-28T11:02:43.958Z,1004.07
2018-06-28T11:03:43.991Z,1003.97
2018-06-28T11:04:44.105Z,1003.98
2018-06-28T11:05:44.047Z,1003.91
2018-06-28T11:06:44.080Z,1003.94
2018-06-28T11:07:44.101Z,1003.91
2018-06-28T11:08:44.128Z,1003.93
2018-06-28T11:09:44.158Z,1003.96
2018-06-28T11:10:44.186Z,1003.89
2018-06-28T11:11:44.239Z,1003.91
2018-06-28T11:12:44.275Z,1003.88
2018-06-28T11:13:44.282Z,1003.87
2018-06-28T11:14:44.302Z,1003.82
2018-06-28T11:15:44.346Z,1003.78
2018-06-28T11:16:44.357Z,1003.72
2018-06-28T11:17:44.385Z,1003.75
2018-06-28T11:18:44.415Z,1003.73
2018-06-28T11:19:44.443Z,1003.74
2018-06-28T11:20:44.470Z,1003.76
2018-06-28T11:21:44.499Z,1003.70
2018-06-28T11:22:44.528Z,1003.70
2018-06-28T11:23:44.559Z,1003.69
2018-06-28T11:24:44.590Z,1003.59
2018-06-28T11:25:44.613Z,1003.61
2018-06-28T11:26:44.751Z,1003.61
2018-06-28T11:27:44.671Z,1003.60
2018-06-28T11:28:44.700Z,1003.56
2018-06-28T11:29:44.726Z,1003.55
2018-06-28T11:30:44.756Z,1003.54
2018-06-28T11:31:44.786Z,1003.51
2018-06-28T11:32:44.813Z,1003.47
2018-06-28T11:33:44.853Z,1003.48
2018-06-28T11:34:44.869Z,1003.39
2018-06-28T11:35:44.904Z,1003.46
2018-06-28T11:36:44.927Z,1003.42
2018-06-28T11:37:44.955Z,1003.41
2018-06-28T11:38:44.984Z,1003.38
2018-06-28T11:39:45.015Z,1003.37
2018-06-28T11:40:45.041Z,1003.30
2018-06-28T11:41:45.071Z,1003.34
2018-06-28T11:42:45.098Z,1003.29
2018-06-28T11:43:45.126Z,1003.23
2018-06-28T11:44:45.153Z,1003.19
2018-06-28T11:45:45.183Z,1003.21
2018-06-28T11:46:45.213Z,1003.21
2018-06-28T11:47:45.240Z,1003.13
2018-06-28T11:48:45.267Z,1003.15
2018-06-28T11:49:45.296Z,1003.14
2018-06-28T11:50:45.325Z,1003.08
2018-06-28T11:51:45.354Z,1003.06
2018-06-28T11:52:45.382Z,1003.03
2018-06-28T11:53:45.410Z,1003.06
2018-06-28T11:54:45.439Z,1003.04
2018-06-28T11:55:45.468Z,1003.03
2018-06-28T11:56:45.495Z,1002.99
2018-06-28T11:57:45.524Z,1002.97
2018-06-28T11:58:45.552Z,1002.98
2018-06-28T11:59:45.581Z,1002.97
2018-06-28T12:00:45.612Z,1002.99
2018-06-28T12:01:45.652Z,1002.94
2018-06-28T12:02:45.667Z,1002.96
2018-06-28T12:03:45.716Z,1002.95
2018-06-28T12:04:45.745Z,1002.98
2018-06-28T12:05:45.753Z,1002.95